createdAt,value
2022-10-25T00:00:27.684Z,1020.4
2022-10-25T00:29:30.825Z,1020.5
2022-10-25T00:58:36.052Z,1020.39
2022-10-25T01:27:41.843Z,1020.3
2022-10-25T01:56:45.047Z,1020.46
2022-10-25T02:25:47.857Z,1020.24
2022-10-25T02:54:48.914Z,1020.25
2022-10-25T03:23:47.788Z,1020.16
2022-10-25T03:52:53.458Z,1020.37
2022-10-25T04:22:03.812Z,1020.53
2022-10-25T04:51:01.918Z,1020.61
2022-10-25T05:20:05.690Z,1020.69
2022-10-25T05:49:09.002Z,1020.65
2022-10-25T06:18:10.491Z,1020.93
2022-10-25T06:47:18.830Z,1021.28
2022-10-25T07:15:58.692Z,1021.44
2022-10-25T07:45:31.807Z,1021.56
2022-10-25T08:14:50.037Z,1021.52
2022-10-25T08:43:56.725Z,1021.3
2022-10-25T09:13:18.686Z,1021.22
2022-10-25T09:41:12.097Z,1021.22
2022-10-25T10:09:51.187Z,1021.28
2022-10-25T10:38:52.690Z,1021.08
2022-10-25T11:07:52.059Z,1020.98
2022-10-25T11:36:59.519Z,1020.71
2022-10-25T12:05:49.486Z,1020.56
2022-10-25T12:34:46.284Z,1020.29
2022-10-25T13:03:41.918Z,1020.24
2022-10-25T13:32:37.593Z,1019.97
2022-10-25T14:01:30.534Z,1019.78
2022-10-25T14:30:22.413Z,1019.66
2022-10-25T14:59:21.485Z,1019.56
2022-10-25T15:28:24.958Z,1019.32
2022-10-25T15:57:26.782Z,1019.32
2022-10-25T16:26:26.952Z,1019.18
2022-10-25T16:55:30.214Z,1019.07
2022-10-25T17:24:26.878Z,1018.95
2022-10-25T17:53:30.547Z,1018.91
2022-10-25T18:22:30.756Z,1018.98
2022-10-25T18:51:34.062Z,1018.98
2022-10-25T19:20:46.823Z,1018.59
2022-10-25T19:49:05.417Z,1018.22
2022-10-25T20:18:03.877Z,1018.04
2022-10-25T20:47:11.991Z,1018.1
2022-10-25T21:16:16.030Z,1017.94
2022-10-25T21:45:18.965Z,1017.99
2022-10-25T22:14:21.370Z,1017.8
2022-10-25T22:43:25.714Z,1017.69
2022-10-25T23:12:18.503Z,1017.71
2022-10-25T23:41:21.883Z,1018
